• Join FlightAware (Why Join?)
  • Login
  • US Flag 
10:50PM EDT


 

Airport Tracker/Info


-or-


 

Live Flight TrackerFlight Track Log ✈ SWA3927 ✈ 20-Apr-2012 ✈ KLAS - KSFO

Flight Track Log - Related Links

Times and Time Zones

All times are in EDT time to prevent confusion due to time zone crossing. See the SWA3927 flight status page for this flight to view local times or setup timezone preferences in your user account.

Time Position Orientation Groundspeed Altitude Reporting Facility
EDT Latitude Longitude Course Direction KTS MPH feet Rate Location/Type
10:48AM 36.0769 -115.1861 258° West 195 224 3,400  Level Los Angeles Center
10:49AM 36.0650 -115.2531 204° Southwest 246 283 5,200 2,160 Climbing Los Angeles Center
10:50AM 35.9942 -115.2922 219° Southwest 318 366 7,600 2,520 Climbing Los Angeles Center
10:51AM 35.9258 -115.3594 246° West 312 359 10,300 1,680 Climbing Los Angeles Center
10:52AM 35.8889 -115.4600 272° West 317 365 11,000 300 Climbing Los Angeles Center
10:53AM 35.8917 -115.5803 270° West 317 365 11,000 1,500 Level Los Angeles Center
10:54AM 35.8919 -115.7008 279° West 346 398 14,100 3,000 Climbing Los Angeles Center
10:55AM 35.9069 -115.8186 309° West 355 409 17,100 2,460 Climbing Los Angeles Center
10:56AM 35.9697 -115.9133 312° West 346 398 19,100 2,100 Climbing Los Angeles Center
10:57AM 36.0408 -116.0108 311° West 377 434 21,400 2,100 Climbing Los Angeles Center
10:58AM 36.1119 -116.1111 311° West 387 445 23,300 1,680 Climbing Los Angeles Center
10:59AM 36.1786 -116.2061 311° West 387 445 24,800 1,560 Climbing Los Angeles Center
11:00AM 36.2536 -116.3119 312° West 400 460 26,500 1,500 Climbing Los Angeles Center
11:01AM 36.3306 -116.4178 312° West 405 466 27,900 1,500 Climbing Los Angeles Center
11:02AM 36.4094 -116.5264 309° West 416 479 29,500 1,800 Climbing Los Angeles Center
11:03AM 36.4842 -116.6403 312° West 416 479 31,500 1,260 Climbing Los Angeles Center
11:04AM 36.5608 -116.7469 328° Northwest 416 479 32,100 240 Climbing Los Angeles Center
11:05AM 36.6667 -116.8281 329° Northwest 425 489 32,000 -60 Descending Los Angeles Center
11:07AM 36.8708 -116.9833 328° Northwest 429 494 32,000  Level Oakland Center
11:08AM 36.9717 -117.0636 323° Northwest 429 494 32,000  Level Oakland Center
11:09AM 37.0622 -117.1503 284° West 423 487 32,000 840 Level Oakland Center
11:10AM 37.0894 -117.2867 282° West 387 445 33,700 1,440 Climbing Oakland Center
11:11AM 37.1125 -117.4236 282° West 392 451 34,900 1,140 Climbing Oakland Center
11:12AM 37.1378 -117.5711 280° West 397 457 36,000 540 Climbing Oakland Center
11:13AM 37.1583 -117.7133 282° West 403 464 36,000  Level Oakland Center
11:14AM 37.1811 -117.8531 282° West 409 471 36,000  Level Oakland Center
11:15AM 37.2056 -117.9956 281° West 409 471 36,000  Level Oakland Center
11:16AM 37.2278 -118.1356 281° West 409 471 36,000  Level Oakland Center
11:17AM 37.2500 -118.2783 280° West 414 476 36,000  Level Oakland Center
11:18AM 37.2697 -118.4158 279° West 414 476 36,000  Level Oakland Center
11:19AM 37.2872 -118.5483 282° West 409 471 36,000  Level Oakland Center
11:20AM 37.3108 -118.6914 282° West 415 478 36,000  Level Oakland Center
11:21AM 37.3344 -118.8342 279° West 421 484 36,000  Level Oakland Center
11:22AM 37.3517 -118.9747 281° West 421 484 36,000  Level Oakland Center
11:23AM 37.3747 -119.1206 281° West 421 484 36,000  Level Oakland Center
11:24AM 37.3958 -119.2639 281° West 421 484 36,000  Level Oakland Center
11:25AM 37.4164 -119.4019 279° West 421 484 36,000  Level Oakland Center
11:26AM 37.4328 -119.5375 279° West 408 470 36,000  Level Oakland Center
11:27AM 37.4511 -119.6811 282° West 414 476 36,000  Level Oakland Center
11:28AM 37.4758 -119.8325 281° West 409 471 36,000 -300 Level Oakland Center
11:29AM 37.4978 -119.9761 278° West 409 471 35,400 -840 Descending Oakland Center
11:30AM 37.5136 -120.1200 280° West 415 478 34,400 -720 Descending Oakland Center
11:31AM 37.5333 -120.2558 280° West 415 478 34,000 -1,500 Descending Oakland Center
11:32AM 37.5528 -120.3972 279° West 409 471 31,500 -2,400 Descending Oakland Center
11:33AM 37.5700 -120.5333 280° West 409 471 29,200 -2,280 Descending Oakland Center
11:34AM 37.5894 -120.6694 279° West 404 465 27,000 -2,340 Descending Oakland Center
11:35AM 37.6064 -120.8108 279° West 410 472 24,600 -2,400 Descending Oakland Center
11:36AM 37.6231 -120.9472 264° West 405 466 22,300 -2,220 Descending Oakland Center
11:37AM 37.6125 -121.0758 262° West 385 443 20,200 -2,040 Descending Oakland Center
11:38AM 37.6000 -121.1911 262° West 375 432 18,300 -2,040 Descending Oakland Center
11:39AM 37.5872 -121.3064 261° West 361 415 16,200 -2,040 Descending Oakland Center
11:40AM 37.5722 -121.4217 259° West 350 403 14,300 -1,860 Descending Oakland Center
11:41AM 37.5500 -121.5667 258° West 318 366 12,200 -1,620 Descending Northern Cal TRACON
11:42AM 37.5333 -121.6667 258° West 297 342 10,900 -840 Descending Northern Cal TRACON
11:43AM 37.5167 -121.7667 264° West 270 311 10,600 -1,140 Descending Northern Cal TRACON
11:45AM 37.5000 -121.9500 284° West 287 330 7,500 -1,320 Descending Northern Cal TRACON
11:46AM 37.5167 -122.0333 288° West 252 290 6,900 -840 Descending Northern Cal TRACON
11:47AM 37.5333 -122.1000 288° West 221 254 5,900 -1,140 Descending Northern Cal TRACON
11:48AM 37.5500 -122.1667 302° West 196 226 4,700 -1,380 Descending Northern Cal TRACON
11:49AM 37.5833 -122.2333 270° West 186 214 3,200 -1,560 Descending Northern Cal TRACON
11:50AM 37.5833 -122.2833 288° West 169 194 1,600 -1,440 Descending Northern Cal TRACON
11:51AM 37.6000 -122.3500 288° West 146 168 300 -1,200 Descending Northern Cal TRACON